sensor_id;sensor_type;location;lat;lon;timestamp;temperature;humidity
9658;DHT22;4867;48.112;11.622;2023-05-10T00:00:40;14.00;99.90
9658;DHT22;4867;48.112;11.622;2023-05-10T00:03:07;13.90;99.90
9658;DHT22;4867;48.112;11.622;2023-05-10T00:05:38;14.00;99.90
9658;DHT22;4867;48.112;11.622;2023-05-10T00:08:05;13.90;99.90
9658;DHT22;4867;48.112;11.622;2023-05-10T00:10:33;13.80;99.90
9658;DHT22;4867;48.112;11.622;2023-05-10T00:13:00;13.80;99.90
9658;DHT22;4867;48.112;11.622;2023-05-10T00:15:28;13.80;99.90
9658;DHT22;4867;48.112;11.622;2023-05-10T00:17:57;13.90;99.90
9658;DHT22;4867;48.112;11.622;2023-05-10T00:20:24;13.80;99.90
9658;DHT22;4867;48.112;11.622;2023-05-10T00:22:52;13.90;99.90
9658;DHT22;4867;48.112;11.622;2023-05-10T00:25:19;13.80;99.90
9658;DHT22;4867;48.112;11.622;2023-05-10T00:27:48;13.80;99.90
9658;DHT22;4867;48.112;11.622;2023-05-10T00:30:16;13.80;99.90
9658;DHT22;4867;48.112;11.622;2023-05-10T00:32:44;13.80;99.90
9658;DHT22;4867;48.112;11.622;2023-05-10T00:35:13;13.70;99.90
9658;DHT22;4867;48.112;11.622;2023-05-10T00:37:40;13.70;99.90
9658;DHT22;4867;48.112;11.622;2023-05-10T00:40:07;13.70;99.90
9658;DHT22;4867;48.112;11.622;2023-05-10T00:42:35;13.80;99.90
9658;DHT22;4867;48.112;11.622;2023-05-10T00:45:02;13.80;99.90
9658;DHT22;4867;48.112;11.622;2023-05-10T00:47:30;13.80;99.90
9658;DHT22;4867;48.112;11.622;2023-05-10T00:49:59;13.70;99.90
9658;DHT22;4867;48.112;11.622;2023-05-10T00:52:28;13.80;99.90
9658;DHT22;4867;48.112;11.622;2023-05-10T00:54:58;13.80;99.90
9658;DHT22;4867;48.112;11.622;2023-05-10T00:57:25;13.80;99.90
9658;DHT22;4867;48.112;11.622;2023-05-10T00:59:53;13.70;99.90
9658;DHT22;4867;48.112;11.622;2023-05-10T01:02:21;13.80;99.90
9658;DHT22;4867;48.112;11.622;2023-05-10T01:04:49;13.70;99.90
9658;DHT22;4867;48.112;11.622;2023-05-10T01:07:17;13.80;99.90
9658;DHT22;4867;48.112;11.622;2023-05-10T01:09:44;13.70;99.90
9658;DHT22;4867;48.112;11.622;2023-05-10T01:12:12;13.70;99.90
9658;DHT22;4867;48.112;11.622;2023-05-10T01:14:39;13.70;99.90
9658;DHT22;4867;48.112;11.622;2023-05-10T01:17:08;13.70;99.90
9658;DHT22;4867;48.112;11.622;2023-05-10T01:19:38;13.70;99.90
9658;DHT22;4867;48.112;11.622;2023-05-10T01:36:02;13.60;99.90
9658;DHT22;4867;48.112;11.622;2023-05-10T01:38:42;13.60;99.90
9658;DHT22;4867;48.112;11.622;2023-05-10T01:41:24;13.60;99.90
9658;DHT22;4867;48.112;11.622;2023-05-10T01:43:59;13.60;99.90
9658;DHT22;4867;48.112;11.622;2023-05-10T01:46:37;13.60;99.90
9658;DHT22;4867;48.112;11.622;2023-05-10T01:49:09;13.50;99.90
9658;DHT22;4867;48.112;11.622;2023-05-10T01:51:48;13.50;99.90
9658;DHT22;4867;48.112;11.622;2023-05-10T01:54:20;13.50;99.90
9658;DHT22;4867;48.112;11.622;2023-05-10T01:56:56;13.50;99.90
9658;DHT22;4867;48.112;11.622;2023-05-10T01:59:30;13.50;99.90
9658;DHT22;4867;48.112;11.622;2023-05-10T02:01:59;13.40;99.90
9658;DHT22;4867;48.112;11.622;2023-05-10T02:04:28;13.40;99.90
9658;DHT22;4867;48.112;11.622;2023-05-10T02:06:56;13.40;99.90
9658;DHT22;4867;48.112;11.622;2023-05-10T02:09:26;13.50;99.90
9658;DHT22;4867;48.112;11.622;2023-05-10T02:11:55;13.50;99.90
9658;DHT22;4867;48.112;11.622;2023-05-10T02:14:24;13.40;99.90
9658;DHT22;4867;48.112;11.622;2023-05-10T02:16:53;13.40;99.90
9658;DHT22;4867;48.112;11.622;2023-05-10T02:19:23;13.40;99.90
9658;DHT22;4867;48.112;11.622;2023-05-10T02:21:52;13.40;99.90
9658;DHT22;4867;48.112;11.622;2023-05-10T02:24:21;13.40;99.90
9658;DHT22;4867;48.112;11.622;2023-05-10T02:26:50;13.40;99.90
9658;DHT22;4867;48.112;11.622;2023-05-10T02:29:18;13.40;99.90
9658;DHT22;4867;48.112;11.622;2023-05-10T02:31:47;13.40;99.90
9658;DHT22;4867;48.112;11.622;2023-05-10T02:34:15;13.50;99.90
9658;DHT22;4867;48.112;11.622;2023-05-10T02:36:45;13.50;99.90
9658;DHT22;4867;48.112;11.622;2023-05-10T02:39:14;13.40;99.90
9658;DHT22;4867;48.112;11.622;2023-05-10T02:41:43;13.40;99.90
9658;DHT22;4867;48.112;11.622;2023-05-10T02:44:15;13.40;99.90
9658;DHT22;4867;48.112;11.622;2023-05-10T02:46:43;13.40;99.90
9658;DHT22;4867;48.112;11.622;2023-05-10T02:49:11;13.40;99.90
9658;DHT22;4867;48.112;11.622;2023-05-10T02:51:42;13.40;99.90
9658;DHT22;4867;48.112;11.622;2023-05-10T02:54:15;13.40;99.90
9658;DHT22;4867;48.112;11.622;2023-05-10T02:56:51;13.50;99.90
9658;DHT22;4867;48.112;11.622;2023-05-10T02:59:20;13.50;99.90
9658;DHT22;4867;48.112;11.622;2023-05-10T03:01:48;13.40;99.90
9658;DHT22;4867;48.112;11.622;2023-05-10T03:04:15;13.40;99.90
9658;DHT22;4867;48.112;11.622;2023-05-10T03:06:43;13.40;99.90
9658;DHT22;4867;48.112;11.622;2023-05-10T03:09:11;13.30;99.90
9658;DHT22;4867;48.112;11.622;2023-05-10T03:11:47;13.40;99.90
9658;DHT22;4867;48.112;11.622;2023-05-10T03:17:14;13.30;99.90
9658;DHT22;4867;48.112;11.622;2023-05-10T03:19:50;13.30;99.90
9658;DHT22;4867;48.112;11.622;2023-05-10T03:22:25;13.30;99.90
9658;DHT22;4867;48.112;11.622;2023-05-10T03:24:55;13.30;99.90
9658;DHT22;4867;48.112;11.622;2023-05-10T03:27:28;13.30;99.90
9658;DHT22;4867;48.112;11.622;2023-05-10T03:29:57;13.30;99.90
9658;DHT22;4867;48.112;11.622;2023-05-10T03:32:25;13.30;99.90
9658;DHT22;4867;48.112;11.622;2023-05-10T03:34:54;13.30;99.90
9658;DHT22;4867;48.112;11.622;2023-05-10T03:37:24;13.30;99.90
9658;DHT22;4867;48.112;11.622;2023-05-10T03:39:51;13.30;99.90
9658;DHT22;4867;48.112;11.622;2023-05-10T03:42:19;13.30;99.90
9658;DHT22;4867;48.112;11.622;2023-05-10T03:44:46;13.30;99.90
9658;DHT22;4867;48.112;11.622;2023-05-10T03:47:16;13.40;99.90
9658;DHT22;4867;48.112;11.622;2023-05-10T03:49:43;13.30;99.90
9658;DHT22;4867;48.112;11.622;2023-05-10T03:52:12;13.30;99.90
9658;DHT22;4867;48.112;11.622;2023-05-10T03:54:39;13.30;99.90
9658;DHT22;4867;48.112;11.622;2023-05-10T03:57:07;13.30;99.90
9658;DHT22;4867;48.112;11.622;2023-05-10T03:59:34;13.30;99.90
9658;DHT22;4867;48.112;11.622;2023-05-10T04:02:02;13.30;99.90
9658;DHT22;4867;48.112;11.622;2023-05-10T04:04:30;13.30;99.90
9658;DHT22;4867;48.112;11.622;2023-05-10T04:06:58;13.30;99.90
9658;DHT22;4867;48.112;11.622;2023-05-10T04:09:25;13.40;99.90
9658;DHT22;4867;48.112;11.622;2023-05-10T04:11:52;13.30;99.90
9658;DHT22;4867;48.112;11.622;2023-05-10T04:14:20;13.30;99.90
9658;DHT22;4867;48.112;11.622;2023-05-10T04:16:47;13.50;99.90
9658;DHT22;4867;48.112;11.622;2023-05-10T04:19:14;13.40;99.90
9658;DHT22;4867;48.112;11.622;2023-05-10T04:21:42;13.40;99.90
9658;DHT22;4867;48.112;11.622;2023-05-10T04:24:09;13.40;99.90
9658;DHT22;4867;48.112;11.622;2023-05-10T04:26:36;13.30;99.90
9658;DHT22;4867;48.112;11.622;2023-05-10T04:29:03;13.50;99.90
9658;DHT22;4867;48.112;11.622;2023-05-10T04:31:31;13.40;99.90
9658;DHT22;4867;48.112;11.622;2023-05-10T04:33:59;13.40;99.90
9658;DHT22;4867;48.112;11.622;2023-05-10T04:36:26;13.40;99.90
9658;DHT22;4867;48.112;11.622;2023-05-10T04:38:54;13.40;99.90
9658;DHT22;4867;48.112;11.622;2023-05-10T04:41:22;13.50;99.90
9658;DHT22;4867;48.112;11.622;2023-05-10T04:43:49;13.40;99.90
9658;DHT22;4867;48.112;11.622;2023-05-10T04:46:16;13.40;99.90
9658;DHT22;4867;48.112;11.622;2023-05-10T04:48:43;13.40;99.90
9658;DHT22;4867;48.112;11.622;2023-05-10T04:51:11;13.50;99.90
9658;DHT22;4867;48.112;11.622;2023-05-10T04:53:38;13.40;99.90
9658;DHT22;4867;48.112;11.622;2023-05-10T04:56:06;13.40;99.90
9658;DHT22;4867;48.112;11.622;2023-05-10T04:58:33;13.50;99.90
9658;DHT22;4867;48.112;11.622;2023-05-10T05:01:10;13.40;99.90
9658;DHT22;4867;48.112;11.622;2023-05-10T05:03:38;13.40;99.90
9658;DHT22;4867;48.112;11.622;2023-05-10T05:06:05;13.40;99.90
9658;DHT22;4867;48.112;11.622;2023-05-10T05:08:32;13.40;99.90
9658;DHT22;4867;48.112;11.622;2023-05-10T05:11:00;13.30;99.90
9658;DHT22;4867;48.112;11.622;2023-05-10T05:13:27;13.20;99.90
9658;DHT22;4867;48.112;11.622;2023-05-10T05:15:54;13.20;99.90
9658;DHT22;4867;48.112;11.622;2023-05-10T05:18:22;13.20;99.90
9658;DHT22;4867;48.112;11.622;2023-05-10T05:20:50;13.10;99.90
9658;DHT22;4867;48.112;11.622;2023-05-10T05:23:18;12.90;99.90
9658;DHT22;4867;48.112;11.622;2023-05-10T05:25:47;12.90;99.90
9658;DHT22;4867;48.112;11.622;2023-05-10T05:28:15;12.90;99.90
9658;DHT22;4867;48.112;11.622;2023-05-10T05:30:42;12.70;99.90
9658;DHT22;4867;48.112;11.622;2023-05-10T05:33:09;12.70;99.90
9658;DHT22;4867;48.112;11.622;2023-05-10T05:35:36;12.60;99.90
9658;DHT22;4867;48.112;11.622;2023-05-10T05:38:04;12.50;99.90
9658;DHT22;4867;48.112;11.622;2023-05-10T05:40:31;12.40;99.90
9658;DHT22;4867;48.112;11.622;2023-05-10T05:42:58;12.50;99.90
9658;DHT22;4867;48.112;11.622;2023-05-10T05:45:26;12.40;99.90
9658;DHT22;4867;48.112;11.622;2023-05-10T05:47:53;12.40;99.90
9658;DHT22;4867;48.112;11.622;2023-05-10T05:50:20;12.40;99.90
9658;DHT22;4867;48.112;11.622;2023-05-10T05:52:48;12.20;99.90
9658;DHT22;4867;48.112;11.622;2023-05-10T05:55:15;11.90;99.90
9658;DHT22;4867;48.112;11.622;2023-05-10T05:57:43;11.80;99.90
9658;DHT22;4867;48.112;11.622;2023-05-10T06:00:11;11.80;99.90
9658;DHT22;4867;48.112;11.622;2023-05-10T06:02:41;11.80;99.90
9658;DHT22;4867;48.112;11.622;2023-05-10T06:05:09;11.80;99.90
9658;DHT22;4867;48.112;11.622;2023-05-10T06:07:36;12.00;99.90
9658;DHT22;4867;48.112;11.622;2023-05-10T06:10:03;11.90;99.90
9658;DHT22;4867;48.112;11.622;2023-05-10T06:12:31;11.90;99.90
9658;DHT22;4867;48.112;11.622;2023-05-10T06:14:59;12.00;99.90
9658;DHT22;4867;48.112;11.622;2023-05-10T06:17:26;12.10;99.90
9658;DHT22;4867;48.112;11.622;2023-05-10T06:19:55;12.10;99.90
9658;DHT22;4867;48.112;11.622;2023-05-10T06:22:22;12.20;99.90
9658;DHT22;4867;48.112;11.622;2023-05-10T06:24:50;12.20;99.90
9658;DHT22;4867;48.112;11.622;2023-05-10T06:27:18;12.10;99.90
9658;DHT22;4867;48.112;11.622;2023-05-10T06:29:46;12.30;99.90
9658;DHT22;4867;48.112;11.622;2023-05-10T06:32:13;12.40;99.90
9658;DHT22;4867;48.112;11.622;2023-05-10T06:34:40;12.40;99.90
9658;DHT22;4867;48.112;11.622;2023-05-10T06:37:08;12.40;99.90
9658;DHT22;4867;48.112;11.622;2023-05-10T06:39:35;12.50;99.90
9658;DHT22;4867;48.112;11.622;2023-05-10T06:42:02;12.70;99.90
9658;DHT22;4867;48.112;11.622;2023-05-10T06:44:32;12.80;99.90
9658;DHT22;4867;48.112;11.622;2023-05-10T06:47:00;12.80;99.90
9658;DHT22;4867;48.112;11.622;2023-05-10T06:49:27;12.80;99.90
9658;DHT22;4867;48.112;11.622;2023-05-10T06:51:56;12.90;99.90
9658;DHT22;4867;48.112;11.622;2023-05-10T06:54:24;12.90;99.90
9658;DHT22;4867;48.112;11.622;2023-05-10T06:56:51;13.00;99.90
9658;DHT22;4867;48.112;11.622;2023-05-10T06:59:19;13.10;99.90
9658;DHT22;4867;48.112;11.622;2023-05-10T07:01:46;13.20;99.90
9658;DHT22;4867;48.112;11.622;2023-05-10T07:04:13;13.50;99.90
9658;DHT22;4867;48.112;11.622;2023-05-10T07:06:42;13.40;99.90
9658;DHT22;4867;48.112;11.622;2023-05-10T07:09:09;13.50;99.90
9658;DHT22;4867;48.112;11.622;2023-05-10T07:11:36;13.60;99.90
9658;DHT22;4867;48.112;11.622;2023-05-10T07:14:04;13.50;99.90
9658;DHT22;4867;48.112;11.622;2023-05-10T07:16:32;13.50;99.90
9658;DHT22;4867;48.112;11.622;2023-05-10T07:18:59;13.40;99.90
9658;DHT22;4867;48.112;11.622;2023-05-10T07:21:26;13.50;99.90
9658;DHT22;4867;48.112;11.622;2023-05-10T07:23:55;13.40;99.90
9658;DHT22;4867;48.112;11.622;2023-05-10T07:26:22;13.50;99.90
9658;DHT22;4867;48.112;11.622;2023-05-10T07:28:51;13.40;99.90
9658;DHT22;4867;48.112;11.622;2023-05-10T07:31:18;13.80;99.90
9658;DHT22;4867;48.112;11.622;2023-05-10T07:33:45;13.90;99.90
9658;DHT22;4867;48.112;11.622;2023-05-10T07:36:13;14.10;99.90
9658;DHT22;4867;48.112;11.622;2023-05-10T07:38:40;14.50;99.90
9658;DHT22;4867;48.112;11.622;2023-05-10T07:41:07;14.80;99.90
9658;DHT22;4867;48.112;11.622;2023-05-10T07:43:35;15.00;99.90
9658;DHT22;4867;48.112;11.622;2023-05-10T07:46:02;14.90;99.90
9658;DHT22;4867;48.112;11.622;2023-05-10T07:48:29;14.60;99.90
9658;DHT22;4867;48.112;11.622;2023-05-10T07:50:57;14.70;99.90
9658;DHT22;4867;48.112;11.622;2023-05-10T07:53:26;14.70;99.90
9658;DHT22;4867;48.112;11.622;2023-05-10T07:56:19;14.80;99.90
9658;DHT22;4867;48.112;11.622;2023-05-10T07:58:46;14.90;99.90
9658;DHT22;4867;48.112;11.622;2023-05-10T08:01:13;15.20;99.90
9658;DHT22;4867;48.112;11.622;2023-05-10T08:03:40;15.30;99.90
9658;DHT22;4867;48.112;11.622;2023-05-10T08:06:08;15.40;99.90
9658;DHT22;4867;48.112;11.622;2023-05-10T08:08:35;15.30;99.90
9658;DHT22;4867;48.112;11.622;2023-05-10T08:11:03;15.30;99.90
9658;DHT22;4867;48.112;11.622;2023-05-10T08:13:31;15.60;99.90
9658;DHT22;4867;48.112;11.622;2023-05-10T08:15:58;15.60;99.90
9658;DHT22;4867;48.112;11.622;2023-05-10T08:18:25;15.90;99.90
9658;DHT22;4867;48.112;11.622;2023-05-10T08:20:53;16.20;99.90
9658;DHT22;4867;48.112;11.622;2023-05-10T08:23:21;16.00;99.90
9658;DHT22;4867;48.112;11.622;2023-05-10T08:25:48;15.90;99.90
9658;DHT22;4867;48.112;11.622;2023-05-10T08:28:15;15.80;99.90
9658;DHT22;4867;48.112;11.622;2023-05-10T08:30:42;16.00;99.90
9658;DHT22;4867;48.112;11.622;2023-05-10T08:33:09;16.00;99.90
9658;DHT22;4867;48.112;11.622;2023-05-10T08:35:37;16.00;99.90
9658;DHT22;4867;48.112;11.622;2023-05-10T08:38:04;15.90;99.90
9658;DHT22;4867;48.112;11.622;2023-05-10T08:40:31;15.80;99.90
9658;DHT22;4867;48.112;11.622;2023-05-10T08:43:05;15.60;99.90
9658;DHT22;4867;48.112;11.622;2023-05-10T08:45:40;15.30;99.90
9658;DHT22;4867;48.112;11.622;2023-05-10T08:48:09;15.10;99.90
9658;DHT22;4867;48.112;11.622;2023-05-10T08:50:39;14.90;99.90
9658;DHT22;4867;48.112;11.622;2023-05-10T08:53:10;14.90;99.90
9658;DHT22;4867;48.112;11.622;2023-05-10T08:55:38;14.80;99.90
9658;DHT22;4867;48.112;11.622;2023-05-10T08:58:07;14.80;99.90
9658;DHT22;4867;48.112;11.622;2023-05-10T09:00:35;14.60;99.90
9658;DHT22;4867;48.112;11.622;2023-05-10T09:03:05;14.60;99.90
9658;DHT22;4867;48.112;11.622;2023-05-10T09:05:33;14.80;99.90
9658;DHT22;4867;48.112;11.622;2023-05-10T09:08:00;14.60;99.90
9658;DHT22;4867;48.112;11.622;2023-05-10T09:10:28;14.60;99.90
9658;DHT22;4867;48.112;11.622;2023-05-10T09:12:57;14.70;99.90
9658;DHT22;4867;48.112;11.622;2023-05-10T09:15:25;14.70;99.90
9658;DHT22;4867;48.112;11.622;2023-05-10T09:17:54;14.80;99.90
9658;DHT22;4867;48.112;11.622;2023-05-10T09:20:22;14.90;99.90
9658;DHT22;4867;48.112;11.622;2023-05-10T09:22:49;15.00;99.90
9658;DHT22;4867;48.112;11.622;2023-05-10T09:25:16;15.20;99.90
9658;DHT22;4867;48.112;11.622;2023-05-10T09:27:46;15.40;99.90
9658;DHT22;4867;48.112;11.622;2023-05-10T09:30:23;15.60;99.90
9658;DHT22;4867;48.112;11.622;2023-05-10T09:32:52;15.60;99.90
9658;DHT22;4867;48.112;11.622;2023-05-10T09:35:22;15.80;99.90
9658;DHT22;4867;48.112;11.622;2023-05-10T09:37:54;15.60;99.90
9658;DHT22;4867;48.112;11.622;2023-05-10T09:40:25;15.50;99.90
9658;DHT22;4867;48.112;11.622;2023-05-10T09:43:08;15.50;99.90
9658;DHT22;4867;48.112;11.622;2023-05-10T09:45:37;15.60;99.90
9658;DHT22;4867;48.112;11.622;2023-05-10T09:48:06;15.60;99.90
9658;DHT22;4867;48.112;11.622;2023-05-10T09:50:33;15.70;99.90
9658;DHT22;4867;48.112;11.622;2023-05-10T09:53:02;15.80;99.90
9658;DHT22;4867;48.112;11.622;2023-05-10T09:55:57;16.00;99.90
9658;DHT22;4867;48.112;11.622;2023-05-10T09:58:24;16.20;99.90
9658;DHT22;4867;48.112;11.622;2023-05-10T10:00:52;16.20;99.90
9658;DHT22;4867;48.112;11.622;2023-05-10T10:03:21;16.60;99.90
9658;DHT22;4867;48.112;11.622;2023-05-10T10:05:49;16.70;99.90
9658;DHT22;4867;48.112;11.622;2023-05-10T10:08:17;17.00;99.90
9658;DHT22;4867;48.112;11.622;2023-05-10T10:10:44;17.20;99.90
9658;DHT22;4867;48.112;11.622;2023-05-10T10:13:13;17.20;99.90
9658;DHT22;4867;48.112;11.622;2023-05-10T10:15:42;17.10;99.90
9658;DHT22;4867;48.112;11.622;2023-05-10T10:18:14;17.00;99.90
9658;DHT22;4867;48.112;11.622;2023-05-10T10:20:44;17.00;99.90
9658;DHT22;4867;48.112;11.622;2023-05-10T10:23:12;16.90;99.90
9658;DHT22;4867;48.112;11.622;2023-05-10T10:25:43;17.10;99.90
9658;DHT22;4867;48.112;11.622;2023-05-10T10:28:46;17.30;99.90
9658;DHT22;4867;48.112;11.622;2023-05-10T10:33:57;17.30;99.90
9658;DHT22;4867;48.112;11.622;2023-05-10T10:36:26;17.20;99.90
9658;DHT22;4867;48.112;11.622;2023-05-10T10:38:58;17.30;99.90
9658;DHT22;4867;48.112;11.622;2023-05-10T10:41:35;17.30;99.90
9658;DHT22;4867;48.112;11.622;2023-05-10T10:44:28;17.00;99.90
9658;DHT22;4867;48.112;11.622;2023-05-10T10:52:25;17.40;99.90
9658;DHT22;4867;48.112;11.622;2023-05-10T10:57:48;17.80;99.90
9658;DHT22;4867;48.112;11.622;2023-05-10T11:00:33;18.00;99.90
9658;DHT22;4867;48.112;11.622;2023-05-10T11:03:10;18.20;99.90
9658;DHT22;4867;48.112;11.622;2023-05-10T11:05:42;18.20;99.90
9658;DHT22;4867;48.112;11.622;2023-05-10T11:08:18;17.90;99.90
9658;DHT22;4867;48.112;11.622;2023-05-10T11:10:51;17.70;99.90
9658;DHT22;4867;48.112;11.622;2023-05-10T11:13:32;17.40;99.90
9658;DHT22;4867;48.112;11.622;2023-05-10T11:16:11;17.00;99.90
9658;DHT22;4867;48.112;11.622;2023-05-10T11:18:39;16.90;99.90
9658;DHT22;4867;48.112;11.622;2023-05-10T11:21:09;16.80;99.90
9658;DHT22;4867;48.112;11.622;2023-05-10T11:26:10;16.20;99.90
9658;DHT22;4867;48.112;11.622;2023-05-10T11:28:42;16.10;99.90
9658;DHT22;4867;48.112;11.622;2023-05-10T11:31:10;16.10;99.90
9658;DHT22;4867;48.112;11.622;2023-05-10T11:33:44;16.00;99.90
9658;DHT22;4867;48.112;11.622;2023-05-10T11:36:18;15.80;99.90
9658;DHT22;4867;48.112;11.622;2023-05-10T11:38:46;15.60;99.90
9658;DHT22;4867;48.112;11.622;2023-05-10T11:41:15;15.60;99.90
9658;DHT22;4867;48.112;11.622;2023-05-10T11:43:46;15.40;99.90
9658;DHT22;4867;48.112;11.622;2023-05-10T11:46:14;15.40;99.90
9658;DHT22;4867;48.112;11.622;2023-05-10T11:48:42;15.10;99.90
9658;DHT22;4867;48.112;11.622;2023-05-10T11:51:10;14.80;99.90
9658;DHT22;4867;48.112;11.622;2023-05-10T11:53:38;14.60;99.90
9658;DHT22;4867;48.112;11.622;2023-05-10T11:56:09;14.40;99.90
9658;DHT22;4867;48.112;11.622;2023-05-10T11:58:39;14.00;99.90
9658;DHT22;4867;48.112;11.622;2023-05-10T12:01:07;14.00;99.90
9658;DHT22;4867;48.112;11.622;2023-05-10T12:03:40;13.80;99.90
9658;DHT22;4867;48.112;11.622;2023-05-10T12:06:07;13.60;99.90
9658;DHT22;4867;48.112;11.622;2023-05-10T12:08:35;13.60;99.90
9658;DHT22;4867;48.112;11.622;2023-05-10T12:11:07;13.70;99.90
9658;DHT22;4867;48.112;11.622;2023-05-10T12:13:39;13.60;99.90
9658;DHT22;4867;48.112;11.622;2023-05-10T12:16:14;13.50;99.90
9658;DHT22;4867;48.112;11.622;2023-05-10T12:18:42;13.50;99.90
9658;DHT22;4867;48.112;11.622;2023-05-10T12:21:11;13.50;99.90
9658;DHT22;4867;48.112;11.622;2023-05-10T12:23:39;13.60;99.90
9658;DHT22;4867;48.112;11.622;2023-05-10T12:26:09;13.50;99.90
9658;DHT22;4867;48.112;11.622;2023-05-10T12:28:38;13.50;99.90
9658;DHT22;4867;48.112;11.622;2023-05-10T12:31:07;13.60;99.90
9658;DHT22;4867;48.112;11.622;2023-05-10T12:33:39;13.50;99.90
9658;DHT22;4867;48.112;11.622;2023-05-10T12:36:14;13.40;99.90
9658;DHT22;4867;48.112;11.622;2023-05-10T12:38:46;13.50;99.90
9658;DHT22;4867;48.112;11.622;2023-05-10T12:41:17;13.50;99.90
9658;DHT22;4867;48.112;11.622;2023-05-10T12:43:45;13.50;99.90
9658;DHT22;4867;48.112;11.622;2023-05-10T12:46:17;13.60;99.90
9658;DHT22;4867;48.112;11.622;2023-05-10T12:48:45;13.70;99.90
9658;DHT22;4867;48.112;11.622;2023-05-10T12:51:13;13.70;99.90
9658;DHT22;4867;48.112;11.622;2023-05-10T12:53:42;13.80;99.90
9658;DHT22;4867;48.112;11.622;2023-05-10T12:56:15;14.00;99.90
9658;DHT22;4867;48.112;11.622;2023-05-10T12:58:42;13.90;99.90
9658;DHT22;4867;48.112;11.622;2023-05-10T13:01:14;14.00;99.90
9658;DHT22;4867;48.112;11.622;2023-05-10T13:03:42;14.00;99.90
9658;DHT22;4867;48.112;11.622;2023-05-10T13:06:13;13.90;99.90
9658;DHT22;4867;48.112;11.622;2023-05-10T13:08:40;14.10;99.90
9658;DHT22;4867;48.112;11.622;2023-05-10T13:11:07;14.00;99.90
9658;DHT22;4867;48.112;11.622;2023-05-10T13:13:35;14.10;99.90
9658;DHT22;4867;48.112;11.622;2023-05-10T13:16:02;14.10;99.90
9658;DHT22;4867;48.112;11.622;2023-05-10T13:18:29;14.10;99.90
9658;DHT22;4867;48.112;11.622;2023-05-10T13:20:56;14.20;99.90
9658;DHT22;4867;48.112;11.622;2023-05-10T13:23:24;14.10;99.90
9658;DHT22;4867;48.112;11.622;2023-05-10T13:25:51;14.20;99.90
9658;DHT22;4867;48.112;11.622;2023-05-10T13:28:19;14.20;99.90
9658;DHT22;4867;48.112;11.622;2023-05-10T13:30:46;14.20;99.90
9658;DHT22;4867;48.112;11.622;2023-05-10T13:33:13;14.30;99.90
9658;DHT22;4867;48.112;11.622;2023-05-10T13:35:40;14.30;99.90
9658;DHT22;4867;48.112;11.622;2023-05-10T13:38:08;14.20;99.90
9658;DHT22;4867;48.112;11.622;2023-05-10T13:40:35;14.30;99.90
9658;DHT22;4867;48.112;11.622;2023-05-10T13:43:02;14.40;99.90
9658;DHT22;4867;48.112;11.622;2023-05-10T13:45:30;14.40;99.90
9658;DHT22;4867;48.112;11.622;2023-05-10T13:47:57;14.40;99.90
9658;DHT22;4867;48.112;11.622;2023-05-10T13:50:25;14.40;99.90
9658;DHT22;4867;48.112;11.622;2023-05-10T13:52:52;14.30;99.90
9658;DHT22;4867;48.112;11.622;2023-05-10T13:55:19;14.30;99.90
9658;DHT22;4867;48.112;11.622;2023-05-10T13:57:47;14.20;99.90
9658;DHT22;4867;48.112;11.622;2023-05-10T14:00:14;14.20;99.90
9658;DHT22;4867;48.112;11.622;2023-05-10T14:02:42;14.20;99.90
9658;DHT22;4867;48.112;11.622;2023-05-10T14:05:09;14.20;99.90
9658;DHT22;4867;48.112;11.622;2023-05-10T14:07:37;14.20;99.90
9658;DHT22;4867;48.112;11.622;2023-05-10T14:10:05;14.20;99.90
9658;DHT22;4867;48.112;11.622;2023-05-10T14:12:32;14.20;99.90
9658;DHT22;4867;48.112;11.622;2023-05-10T14:14:59;14.30;99.90
9658;DHT22;4867;48.112;11.622;2023-05-10T14:17:27;14.20;99.90
9658;DHT22;4867;48.112;11.622;2023-05-10T14:19:54;14.20;99.90
9658;DHT22;4867;48.112;11.622;2023-05-10T14:22:21;14.30;99.90
9658;DHT22;4867;48.112;11.622;2023-05-10T14:24:49;14.40;99.90
9658;DHT22;4867;48.112;11.622;2023-05-10T14:27:17;14.40;99.90
9658;DHT22;4867;48.112;11.622;2023-05-10T14:29:45;14.40;99.90
9658;DHT22;4867;48.112;11.622;2023-05-10T14:32:12;14.60;99.90
9658;DHT22;4867;48.112;11.622;2023-05-10T14:34:39;14.50;99.90
9658;DHT22;4867;48.112;11.622;2023-05-10T14:37:09;14.60;99.90
9658;DHT22;4867;48.112;11.622;2023-05-10T14:39:37;14.60;99.90
9658;DHT22;4867;48.112;11.622;2023-05-10T14:42:04;14.60;99.90
9658;DHT22;4867;48.112;11.622;2023-05-10T14:44:32;14.60;99.90
9658;DHT22;4867;48.112;11.622;2023-05-10T14:46:59;14.60;99.90
9658;DHT22;4867;48.112;11.622;2023-05-10T14:49:26;14.50;99.90
9658;DHT22;4867;48.112;11.622;2023-05-10T14:51:56;14.50;99.90
9658;DHT22;4867;48.112;11.622;2023-05-10T14:54:23;14.20;99.90
9658;DHT22;4867;48.112;11.622;2023-05-10T14:56:51;14.20;99.90
9658;DHT22;4867;48.112;11.622;2023-05-10T14:59:19;14.10;99.90
9658;DHT22;4867;48.112;11.622;2023-05-10T15:01:50;14.00;99.90
9658;DHT22;4867;48.112;11.622;2023-05-10T15:04:18;14.00;99.90
9658;DHT22;4867;48.112;11.622;2023-05-10T15:06:45;13.90;99.90
9658;DHT22;4867;48.112;11.622;2023-05-10T15:09:16;13.70;99.90
9658;DHT22;4867;48.112;11.622;2023-05-10T15:11:43;13.60;99.90
9658;DHT22;4867;48.112;11.622;2023-05-10T15:14:11;13.50;99.90
9658;DHT22;4867;48.112;11.622;2023-05-10T15:16:38;13.50;99.90
9658;DHT22;4867;48.112;11.622;2023-05-10T15:19:06;13.50;99.90
9658;DHT22;4867;48.112;11.622;2023-05-10T15:21:33;13.60;99.90
9658;DHT22;4867;48.112;11.622;2023-05-10T15:24:05;13.70;99.90
9658;DHT22;4867;48.112;11.622;2023-05-10T15:26:33;13.70;99.90
9658;DHT22;4867;48.112;11.622;2023-05-10T15:29:00;13.70;99.90
9658;DHT22;4867;48.112;11.622;2023-05-10T15:31:27;13.80;99.90
9658;DHT22;4867;48.112;11.622;2023-05-10T15:33:58;13.70;99.90
9658;DHT22;4867;48.112;11.622;2023-05-10T15:36:26;13.60;99.90
9658;DHT22;4867;48.112;11.622;2023-05-10T15:38:53;13.50;99.90
9658;DHT22;4867;48.112;11.622;2023-05-10T15:41:21;13.40;99.90
9658;DHT22;4867;48.112;11.622;2023-05-10T15:43:49;13.50;99.90
9658;DHT22;4867;48.112;11.622;2023-05-10T15:46:19;13.40;99.90
9658;DHT22;4867;48.112;11.622;2023-05-10T15:48:46;13.30;99.90
9658;DHT22;4867;48.112;11.622;2023-05-10T15:51:13;13.30;99.90
9658;DHT22;4867;48.112;11.622;2023-05-10T15:53:41;13.30;99.90
9658;DHT22;4867;48.112;11.622;2023-05-10T15:56:29;13.30;99.90
9658;DHT22;4867;48.112;11.622;2023-05-10T15:58:59;13.10;99.90
9658;DHT22;4867;48.112;11.622;2023-05-10T16:01:29;13.10;99.90
9658;DHT22;4867;48.112;11.622;2023-05-10T16:03:58;13.10;99.90
9658;DHT22;4867;48.112;11.622;2023-05-10T16:06:27;13.20;99.90
9658;DHT22;4867;48.112;11.622;2023-05-10T16:08:54;12.90;99.90
9658;DHT22;4867;48.112;11.622;2023-05-10T16:11:22;12.70;99.90
9658;DHT22;4867;48.112;11.622;2023-05-10T16:13:49;12.70;99.90
9658;DHT22;4867;48.112;11.622;2023-05-10T16:16:16;12.70;99.90
9658;DHT22;4867;48.112;11.622;2023-05-10T16:18:44;12.50;99.90
9658;DHT22;4867;48.112;11.622;2023-05-10T16:21:11;12.60;99.90
9658;DHT22;4867;48.112;11.622;2023-05-10T16:23:38;12.50;99.90
9658;DHT22;4867;48.112;11.622;2023-05-10T16:26:06;12.50;99.90